createdAt,value
2018-08-12T00:00:32.189Z,1.50
2018-08-12T00:05:35.875Z,1.40
2018-08-12T00:10:40.166Z,2.40
2018-08-12T00:15:43.946Z,1.70
2018-08-12T00:20:47.631Z,1.67
2018-08-12T00:25:51.383Z,1.63
2018-08-12T00:30:55.091Z,2.23
2018-08-12T00:35:58.702Z,2.07
2018-08-12T00:41:02.289Z,2.03
2018-08-12T00:46:05.909Z,2.07
2018-08-12T00:51:09.544Z,2.43
2018-08-12T00:56:13.390Z,1.90
2018-08-12T01:01:17.012Z,2.40
2018-08-12T01:06:20.697Z,2.13
2018-08-12T01:11:24.328Z,1.80
2018-08-12T01:16:28.493Z,1.80
2018-08-12T01:21:32.168Z,2.07
2018-08-12T01:26:35.784Z,1.90
2018-08-12T01:31:39.411Z,2.67
2018-08-12T01:36:43.626Z,3.17
2018-08-12T01:41:47.543Z,3.60
2018-08-12T01:46:53.394Z,2.70
2018-08-12T01:51:57.302Z,3.17
2018-08-12T01:57:01.645Z,3.60
2018-08-12T02:02:05.296Z,3.80
2018-08-12T02:07:08.808Z,3.07
2018-08-12T02:12:12.503Z,2.83
2018-08-12T02:17:16.378Z,2.93
2018-08-12T02:22:20.088Z,2.80
2018-08-12T02:27:23.740Z,2.77
2018-08-12T02:32:27.505Z,3.70
2018-08-12T02:37:31.167Z,3.47
2018-08-12T02:42:34.848Z,3.10
2018-08-12T02:47:38.626Z,3.43
2018-08-12T02:52:42.553Z,3.03
2018-08-12T02:57:46.170Z,3.00
2018-08-12T03:02:49.778Z,3.60
2018-08-12T03:07:54.229Z,3.50
2018-08-12T03:12:57.812Z,3.43
2018-08-12T03:18:01.473Z,3.60
2018-08-12T03:23:05.224Z,3.83
2018-08-12T03:28:08.949Z,3.80
2018-08-12T03:33:12.742Z,4.47
2018-08-12T03:38:16.285Z,5.20
2018-08-12T03:43:19.885Z,4.53
2018-08-12T03:48:23.561Z,6.13
2018-08-12T03:53:27.145Z,7.10
2018-08-12T03:58:30.792Z,7.50
2018-08-12T04:03:34.708Z,7.90
2018-08-12T04:08:38.366Z,7.17
2018-08-12T04:13:42.398Z,10.00
2018-08-12T04:18:46.077Z,10.80
2018-08-12T04:23:52.761Z,11.13
2018-08-12T04:28:56.516Z,12.57
2018-08-12T04:34:00.095Z,12.97
2018-08-12T04:39:04.705Z,14.17
2018-08-12T04:44:08.927Z,14.27
2018-08-12T04:49:12.658Z,13.50
2018-08-12T04:54:17.030Z,12.20
2018-08-12T04:59:20.711Z,13.03
2018-08-12T05:04:24.634Z,15.10
2018-08-12T05:09:28.467Z,17.50
2018-08-12T05:14:32.378Z,15.77
2018-08-12T05:19:36.235Z,14.87
2018-08-12T05:24:39.862Z,15.27
2018-08-12T05:29:43.972Z,15.80
2018-08-12T05:34:47.583Z,14.20
2018-08-12T05:39:51.218Z,13.37
2018-08-12T05:44:54.802Z,14.23
2018-08-12T05:49:58.427Z,14.87
2018-08-12T05:55:02.124Z,15.03
2018-08-12T06:00:08.754Z,13.00
2018-08-12T06:05:13.065Z,13.73
2018-08-12T06:10:16.714Z,12.83
2018-08-12T06:15:20.430Z,13.47
2018-08-12T06:20:24.565Z,11.73
2018-08-12T06:25:29.478Z,10.60
2018-08-12T06:30:40.197Z,10.10
2018-08-12T06:35:44.095Z,10.03
2018-08-12T06:40:48.224Z,8.37
2018-08-12T06:45:52.339Z,7.90
2018-08-12T06:50:56.141Z,7.30
2018-08-12T06:56:00.185Z,7.00
2018-08-12T07:01:03.792Z,7.35
2018-08-12T07:06:07.695Z,7.30
2018-08-12T07:11:11.299Z,8.80
2018-08-12T07:16:15.843Z,7.13
2018-08-12T07:21:19.392Z,6.80
2018-08-12T07:26:23.667Z,5.33
2018-08-12T07:31:27.473Z,5.93
2018-08-12T07:36:31.053Z,5.20
2018-08-12T07:41:34.649Z,4.43
2018-08-12T07:46:38.299Z,4.97
2018-08-12T07:51:41.856Z,4.17
2018-08-12T07:56:45.539Z,3.03
2018-08-12T08:01:49.796Z,2.13
2018-08-12T08:06:53.372Z,2.10
2018-08-12T08:11:56.881Z,2.20
2018-08-12T08:17:00.441Z,2.50
2018-08-12T08:22:04.075Z,1.73
2018-08-12T08:27:07.721Z,1.70
2018-08-12T08:32:11.994Z,1.57
2018-08-12T08:37:15.754Z,1.63
2018-08-12T08:42:19.557Z,1.33
2018-08-12T08:47:23.626Z,1.20
2018-08-12T08:52:27.140Z,1.00
2018-08-12T08:57:30.847Z,1.30
2018-08-12T09:02:34.677Z,1.00
2018-08-12T09:07:38.575Z,0.87
2018-08-12T09:12:42.523Z,1.47
2018-08-12T09:17:46.647Z,1.10
2018-08-12T09:22:50.194Z,1.30
2018-08-12T09:27:54.464Z,1.43
2018-08-12T09:32:58.139Z,0.80
2018-08-12T09:38:01.718Z,1.53
2018-08-12T09:43:05.338Z,0.90
2018-08-12T09:48:09.625Z,0.73
2018-08-12T09:53:14.454Z,0.93
2018-08-12T09:58:18.410Z,1.00
2018-08-12T10:03:22.143Z,1.10
2018-08-12T10:08:26.795Z,0.97
2018-08-12T10:13:30.402Z,0.90
2018-08-12T10:18:34.200Z,0.77
2018-08-12T10:23:37.804Z,0.77
2018-08-12T10:28:41.383Z,0.80
2018-08-12T10:33:45.204Z,0.80
2018-08-12T10:38:49.875Z,0.63
2018-08-12T10:43:53.681Z,1.00
2018-08-12T10:48:58.844Z,1.00
2018-08-12T10:54:02.799Z,1.30
2018-08-12T10:59:06.618Z,1.20
2018-08-12T11:04:10.188Z,0.93
2018-08-12T11:09:14.028Z,0.80
2018-08-12T11:14:17.781Z,1.17
2018-08-12T11:19:21.421Z,0.80
2018-08-12T11:24:25.024Z,0.70
2018-08-12T11:29:28.692Z,0.90
2018-08-12T11:34:32.299Z,0.70
2018-08-12T11:39:35.923Z,0.67
2018-08-12T11:44:40.592Z,0.60
2018-08-12T11:49:45.207Z,0.57
2018-08-12T11:54:48.869Z,0.57
2018-08-12T11:59:52.592Z,0.60
2018-08-12T12:04:56.250Z,0.70
2018-08-12T12:09:59.938Z,0.90
2018-08-12T12:15:04.519Z,0.80
2018-08-12T12:20:10.555Z,0.90
2018-08-12T12:25:15.612Z,0.80
2018-08-12T12:30:31.981Z,0.60
2018-08-12T12:35:35.721Z,0.90
2018-08-12T12:40:39.589Z,0.53
2018-08-12T12:45:44.263Z,0.60
2018-08-12T12:50:49.939Z,1.07
2018-08-12T12:55:55.835Z,0.60
2018-08-12T13:00:59.953Z,0.80
2018-08-12T13:06:03.619Z,0.60
2018-08-12T13:11:07.400Z,0.53
2018-08-12T13:16:11.213Z,0.50
2018-08-12T13:21:15.057Z,0.80
2018-08-12T13:26:18.828Z,0.50
2018-08-12T13:31:23.736Z,0.80
2018-08-12T13:36:28.072Z,0.60
2018-08-12T13:41:32.590Z,0.60
2018-08-12T13:46:37.120Z,0.80
2018-08-12T13:51:42.141Z,0.70
2018-08-12T13:56:52.503Z,0.77
2018-08-12T14:01:58.576Z,0.40
2018-08-12T14:07:02.950Z,0.60
2018-08-12T14:12:06.896Z,0.70
2018-08-12T14:17:11.297Z,0.70
2018-08-12T14:22:16.049Z,0.70
2018-08-12T14:27:21.265Z,1.00
2018-08-12T14:32:25.603Z,0.83
2018-08-12T14:37:30.016Z,0.77
2018-08-12T14:42:34.497Z,0.60
2018-08-12T14:47:39.086Z,0.70
2018-08-12T14:52:42.981Z,0.60
2018-08-12T14:57:47.837Z,0.90
2018-08-12T15:02:52.553Z,1.07
2018-08-12T15:07:56.266Z,0.70
2018-08-12T15:13:00.654Z,0.50
2018-08-12T15:18:05.367Z,0.90
2018-08-12T15:23:10.446Z,1.33
2018-08-12T15:28:14.527Z,1.23
2018-08-12T15:33:20.757Z,1.00
2018-08-12T15:38:25.014Z,1.57
2018-08-12T15:43:28.974Z,1.57
2018-08-12T15:48:32.815Z,1.87
2018-08-12T15:53:37.312Z,1.07
2018-08-12T15:58:40.962Z,1.13
2018-08-12T16:03:44.555Z,1.27
2018-08-12T16:08:49.069Z,1.27
2018-08-12T16:13:52.694Z,1.23
2018-08-12T16:18:57.279Z,1.33
2018-08-12T16:24:01.090Z,1.13
2018-08-12T16:29:04.742Z,1.00
2018-08-12T16:34:18.456Z,1.00
2018-08-12T16:39:22.036Z,1.20
2018-08-12T16:44:25.689Z,1.20
2018-08-12T16:49:29.614Z,1.40
2018-08-12T16:54:33.118Z,1.33
2018-08-12T16:59:36.732Z,1.53
2018-08-12T17:04:40.369Z,1.10
2018-08-12T17:09:44.010Z,1.20
2018-08-12T17:14:47.654Z,1.57
2018-08-12T17:19:51.253Z,1.70
2018-08-12T17:24:54.884Z,1.47
2018-08-12T17:29:58.511Z,1.60
2018-08-12T17:35:02.058Z,1.57
2018-08-12T17:40:07.662Z,2.30
2018-08-12T17:45:12.747Z,1.67
2018-08-12T17:50:17.354Z,2.07
2018-08-12T17:55:21.258Z,2.67
2018-08-12T18:00:31.907Z,1.53
2018-08-12T18:05:35.534Z,12.97
2018-08-12T18:10:39.102Z,7.20
2018-08-12T18:15:42.867Z,3.43
2018-08-12T18:20:46.529Z,2.70
2018-08-12T18:25:50.293Z,2.17
2018-08-12T18:30:53.946Z,1.90
2018-08-12T18:35:57.717Z,2.37
2018-08-12T18:41:01.315Z,7.07
2018-08-12T18:46:05.258Z,1.80
2018-08-12T18:51:08.993Z,2.00
2018-08-12T18:56:13.409Z,1.80
2018-08-12T19:01:17.175Z,1.67
2018-08-12T19:06:21.284Z,1.83
2018-08-12T19:11:24.939Z,2.37
2018-08-12T19:16:28.558Z,2.10
2018-08-12T19:21:32.778Z,1.73
2018-08-12T19:26:36.499Z,2.17
2018-08-12T19:31:40.437Z,2.13
2018-08-12T19:36:44.075Z,2.27
2018-08-12T19:41:48.020Z,2.27
2018-08-12T19:46:51.677Z,2.03
2018-08-12T19:51:55.263Z,2.00
2018-08-12T19:56:59.467Z,2.13
2018-08-12T20:02:03.110Z,2.00
2018-08-12T20:07:06.768Z,2.57
2018-08-12T20:12:10.523Z,1.93
2018-08-12T20:17:14.081Z,1.93
2018-08-12T20:22:17.921Z,1.50
2018-08-12T20:27:21.529Z,2.87
2018-08-12T20:32:25.343Z,2.00
2018-08-12T20:37:28.975Z,1.50
2018-08-12T20:42:32.642Z,2.20
2018-08-12T20:47:36.381Z,2.00
2018-08-12T20:52:39.938Z,1.50
2018-08-12T20:57:43.535Z,1.30
2018-08-12T21:02:47.254Z,1.97
2018-08-12T21:07:50.922Z,1.83
2018-08-12T21:12:54.524Z,1.93
2018-08-12T21:17:58.763Z,1.67
2018-08-12T21:23:03.430Z,1.87
2018-08-12T21:28:07.659Z,1.90
2018-08-12T21:33:11.290Z,1.40
2018-08-12T21:38:14.870Z,1.73
2018-08-12T21:43:18.422Z,1.40
2018-08-12T21:48:22.012Z,1.73
2018-08-12T21:53:25.641Z,1.17
2018-08-12T21:58:29.721Z,1.50
2018-08-12T22:03:33.609Z,1.97
2018-08-12T22:08:37.191Z,1.43
2018-08-12T22:13:40.830Z,2.10
2018-08-12T22:18:44.925Z,2.10
2018-08-12T22:23:48.463Z,1.70
2018-08-12T22:28:52.064Z,1.83
2018-08-12T22:33:55.786Z,1.50
2018-08-12T22:38:59.493Z,1.90
2018-08-12T22:44:03.177Z,1.63
2018-08-12T22:49:07.546Z,1.50
2018-08-12T22:54:11.385Z,2.17
2018-08-12T22:59:15.620Z,1.43
2018-08-12T23:04:19.251Z,2.67
2018-08-12T23:09:22.943Z,2.27
2018-08-12T23:14:26.574Z,2.27
2018-08-12T23:19:32.093Z,2.27
2018-08-12T23:24:35.821Z,2.50
2018-08-12T23:29:39.553Z,2.00
2018-08-12T23:34:43.111Z,2.03
2018-08-12T23:39:46.733Z,2.03
2018-08-12T23:44:50.270Z,2.40
2018-08-12T23:49:53.868Z,2.00
2018-08-12T23:54:57.531Z,2.17
